createdAt,value
2022-08-08T00:07:16.419Z,16.1
2022-08-08T00:27:16.969Z,15.9
2022-08-08T00:37:45.557Z,15.7
2022-08-08T01:27:24.198Z,15.1
2022-08-08T01:47:59.185Z,14.7
2022-08-08T01:57:22.471Z,14.8
2022-08-08T02:17:24.289Z,14.4
2022-08-08T02:37:51.667Z,14.1
2022-08-08T03:17:39.390Z,13.6
2022-08-08T03:27:27.794Z,13.5
2022-08-08T03:37:59.216Z,13.4
2022-08-08T03:47:39.623Z,13.2
2022-08-08T03:58:10.086Z,13.1
2022-08-08T04:07:29.952Z,13.1
2022-08-08T04:17:46.813Z,13.1
2022-08-08T04:27:43.172Z,13.2
2022-08-08T04:37:32.035Z,13.3
2022-08-08T04:47:32.266Z,13.5
2022-08-08T05:07:42.062Z,13.4
2022-08-08T05:17:37.502Z,13.8
2022-08-08T05:27:41.010Z,14.8
2022-08-08T05:37:39.321Z,15.1
2022-08-08T05:47:41.851Z,17.8
2022-08-08T05:57:57.641Z,17.5
2022-08-08T06:17:51.779Z,18.9
2022-08-08T06:27:36.830Z,18.1
2022-08-08T06:37:38.053Z,18.5
2022-08-08T06:47:52.065Z,17.6
2022-08-08T06:57:44.019Z,18.1
2022-08-08T07:17:40.461Z,19.6
2022-08-08T07:27:47.600Z,20.7
2022-08-08T07:37:55.490Z,21.2
2022-08-08T07:57:48.359Z,21.3
2022-08-08T08:07:42.527Z,20.5
2022-08-08T08:17:44.932Z,22.4
2022-08-08T08:27:46.789Z,22.8
2022-08-08T08:38:05.757Z,21.8
2022-08-08T09:07:52.080Z,23.5
2022-08-08T09:17:52.580Z,24.1
2022-08-08T09:27:57.761Z,24.4
2022-08-08T09:37:59.217Z,24
2022-08-08T09:57:55.405Z,24.5
2022-08-08T10:07:49.394Z,24.2
2022-08-08T10:27:50.605Z,24.7
2022-08-08T10:37:51.241Z,24.4
2022-08-08T10:47:55.175Z,25.2
2022-08-08T10:57:53.268Z,25.5
2022-08-08T11:08:32.045Z,24.6
2022-08-08T11:17:59.150Z,25.5
2022-08-08T11:27:53.707Z,25.6
2022-08-08T11:38:34.800Z,25.9
2022-08-08T11:48:02.353Z,25.9
2022-08-08T13:18:09.611Z,24.3
2022-08-08T14:18:10.399Z,25.8
2022-08-08T15:08:12.296Z,25.7
2022-08-08T15:18:10.557Z,26.2
2022-08-08T15:28:33.182Z,26.4
2022-08-08T15:38:12.988Z,26
2022-08-08T15:58:11.537Z,25.8
2022-08-08T16:08:13.106Z,25.8
2022-08-08T16:18:13.301Z,25.8
2022-08-08T16:38:16.353Z,25.6
2022-08-08T17:08:15.438Z,25
2022-08-08T17:18:16.240Z,25.2
2022-08-08T17:28:16.172Z,25
2022-08-08T17:38:16.486Z,24.8
2022-08-08T17:48:29.090Z,24.7
2022-08-08T17:58:18.169Z,24.5
2022-08-08T18:08:25.470Z,24.3
2022-08-08T18:18:28.569Z,24.1
2022-08-08T18:28:23.335Z,23.9
2022-08-08T18:48:21.163Z,23.6
2022-08-08T18:58:21.623Z,23.3
2022-08-08T19:08:23.864Z,23
2022-08-08T19:18:31.521Z,22.9
2022-08-08T19:28:22.913Z,22.7
2022-08-08T19:38:23.891Z,22.4
2022-08-08T19:48:29.586Z,22.1
2022-08-08T19:58:25.669Z,21.7
2022-08-08T20:08:30.421Z,21.3
2022-08-08T20:18:29.556Z,21
2022-08-08T20:28:32.357Z,20.8
2022-08-08T20:38:29.352Z,20.9
2022-08-08T20:48:28.527Z,20.7
2022-08-08T20:58:29.081Z,20.5
2022-08-08T21:08:34.582Z,20.3
2022-08-08T21:28:33.376Z,20
2022-08-08T21:38:31.097Z,20
2022-08-08T21:48:35.557Z,19.8
2022-08-08T21:58:31.987Z,19.7
2022-08-08T22:08:37.129Z,19.6
2022-08-08T22:29:03.819Z,19.2
2022-08-08T22:38:33.965Z,19
2022-08-08T22:48:34.974Z,18.8
2022-08-08T22:58:35.302Z,18.7
2022-08-08T23:08:35.976Z,18.5
2022-08-08T23:18:36.149Z,18.4
2022-08-08T23:28:36.313Z,17.9
2022-08-08T23:38:41.787Z,17.8
2022-08-08T23:48:57.896Z,17.7
2022-08-08T23:58:38.531Z,17.7
